sensor_id;sensor_type;location;lat;lon;timestamp;pressure;altitude;pressure_sealevel;temperature;humidity
54512;BME280;40419;47.438;19.026;2023-03-04T00:02:17;99922.69;;;2.77;77.66
54512;BME280;40419;47.438;19.026;2023-03-04T00:04:43;99926.63;;;2.73;76.68
54512;BME280;40419;47.438;19.026;2023-03-04T00:07:08;99914.09;;;2.56;79.71
54512;BME280;40419;47.438;19.026;2023-03-04T00:09:35;99915.63;;;2.30;79.16
54512;BME280;40419;47.438;19.026;2023-03-04T00:12:00;99915.59;;;2.40;79.65
54512;BME280;40419;47.438;19.026;2023-03-04T00:14:29;99909.06;;;2.53;77.70
54512;BME280;40419;47.438;19.026;2023-03-04T00:16:54;99914.69;;;2.50;77.93
54512;BME280;40419;47.438;19.026;2023-03-04T00:19:22;99911.31;;;2.47;79.82
54512;BME280;40419;47.438;19.026;2023-03-04T00:21:50;99907.13;;;2.45;77.72
54512;BME280;40419;47.438;19.026;2023-03-04T00:24:18;99915.44;;;2.42;78.34
54512;BME280;40419;47.438;19.026;2023-03-04T00:26:46;99913.81;;;2.31;80.70
54512;BME280;40419;47.438;19.026;2023-03-04T00:29:16;99915.47;;;2.04;81.34
54512;BME280;40419;47.438;19.026;2023-03-04T00:31:44;99900.63;;;1.92;82.52
54512;BME280;40419;47.438;19.026;2023-03-04T00:34:09;99913.53;;;1.97;83.22
54512;BME280;40419;47.438;19.026;2023-03-04T00:36:35;99902.84;;;1.97;83.08
54512;BME280;40419;47.438;19.026;2023-03-04T00:39:02;99916.06;;;1.88;83.36
54512;BME280;40419;47.438;19.026;2023-03-04T00:41:28;99912.97;;;1.93;83.19
54512;BME280;40419;47.438;19.026;2023-03-04T00:43:54;99919.75;;;1.87;82.61
54512;BME280;40419;47.438;19.026;2023-03-04T00:46:21;99916.78;;;1.90;82.73
54512;BME280;40419;47.438;19.026;2023-03-04T00:48:47;99911.31;;;1.92;79.96
54512;BME280;40419;47.438;19.026;2023-03-04T00:51:15;99908.09;;;1.79;79.14
54512;BME280;40419;47.438;19.026;2023-03-04T00:53:40;99907.38;;;1.76;80.37
54512;BME280;40419;47.438;19.026;2023-03-04T00:56:06;99899.94;;;1.80;78.67
54512;BME280;40419;47.438;19.026;2023-03-04T00:58:32;99906.66;;;1.94;77.23
54512;BME280;40419;47.438;19.026;2023-03-04T01:00:57;99893.22;;;1.76;76.98
54512;BME280;40419;47.438;19.026;2023-03-04T01:03:27;99895.47;;;1.71;79.50
54512;BME280;40419;47.438;19.026;2023-03-04T01:05:57;99884.47;;;1.84;78.18
54512;BME280;40419;47.438;19.026;2023-03-04T01:08:22;99894.16;;;1.85;76.14
54512;BME280;40419;47.438;19.026;2023-03-04T01:10:52;99882.72;;;1.65;76.88
54512;BME280;40419;47.438;19.026;2023-03-04T01:13:17;99885.19;;;1.76;77.93
54512;BME280;40419;47.438;19.026;2023-03-04T01:15:43;99883.66;;;1.73;77.60
54512;BME280;40419;47.438;19.026;2023-03-04T01:18:09;99873.84;;;1.74;76.59
54512;BME280;40419;47.438;19.026;2023-03-04T01:20:41;99875.66;;;1.73;76.38
54512;BME280;40419;47.438;19.026;2023-03-04T01:23:07;99885.59;;;1.81;75.17
54512;BME280;40419;47.438;19.026;2023-03-04T01:25:37;99880.09;;;1.92;73.53
54512;BME280;40419;47.438;19.026;2023-03-04T01:28:03;99876.00;;;1.88;70.83
54512;BME280;40419;47.438;19.026;2023-03-04T01:30:28;99880.31;;;1.99;70.49
54512;BME280;40419;47.438;19.026;2023-03-04T01:32:56;99878.53;;;2.00;68.32
54512;BME280;40419;47.438;19.026;2023-03-04T01:35:23;99870.50;;;2.00;70.55
54512;BME280;40419;47.438;19.026;2023-03-04T01:37:48;99864.56;;;2.06;68.78
54512;BME280;40419;47.438;19.026;2023-03-04T01:40:14;99865.25;;;2.08;65.89
54512;BME280;40419;47.438;19.026;2023-03-04T01:42:44;99856.72;;;2.04;66.29
54512;BME280;40419;47.438;19.026;2023-03-04T01:45:17;99860.13;;;1.97;67.87
54512;BME280;40419;47.438;19.026;2023-03-04T01:47:47;99859.97;;;1.98;68.67
54512;BME280;40419;47.438;19.026;2023-03-04T01:50:26;99855.47;;;1.99;68.87
54512;BME280;40419;47.438;19.026;2023-03-04T01:52:54;99852.41;;;1.93;65.68
54512;BME280;40419;47.438;19.026;2023-03-04T01:55:21;99858.72;;;1.92;66.55
54512;BME280;40419;47.438;19.026;2023-03-04T01:57:49;99858.88;;;1.91;66.24
54512;BME280;40419;47.438;19.026;2023-03-04T02:02:53;99860.56;;;1.92;65.37
54512;BME280;40419;47.438;19.026;2023-03-04T02:05:20;99852.50;;;2.02;63.23
54512;BME280;40419;47.438;19.026;2023-03-04T02:07:47;99841.88;;;2.20;61.83
54512;BME280;40419;47.438;19.026;2023-03-04T02:10:15;99849.56;;;2.23;62.27
54512;BME280;40419;47.438;19.026;2023-03-04T02:12:43;99848.81;;;2.30;60.80
54512;BME280;40419;47.438;19.026;2023-03-04T02:15:11;99840.78;;;2.40;58.90
54512;BME280;40419;47.438;19.026;2023-03-04T02:17:37;99841.06;;;2.37;61.52
54512;BME280;40419;47.438;19.026;2023-03-04T02:23:10;99841.94;;;2.28;60.55
54512;BME280;40419;47.438;19.026;2023-03-04T02:25:46;99825.00;;;2.19;61.24
54512;BME280;40419;47.438;19.026;2023-03-04T02:28:12;99821.13;;;2.32;60.51
54512;BME280;40419;47.438;19.026;2023-03-04T02:30:40;99816.09;;;2.28;60.48
54512;BME280;40419;47.438;19.026;2023-03-04T02:33:08;99808.44;;;2.34;59.79
54512;BME280;40419;47.438;19.026;2023-03-04T02:35:34;99809.28;;;2.16;58.85
54512;BME280;40419;47.438;19.026;2023-03-04T02:38:00;99813.59;;;2.17;58.34
54512;BME280;40419;47.438;19.026;2023-03-04T02:40:28;99809.72;;;2.11;58.15
54512;BME280;40419;47.438;19.026;2023-03-04T02:42:58;99812.50;;;1.92;60.56
54512;BME280;40419;47.438;19.026;2023-03-04T02:45:34;99810.50;;;1.94;61.19
54512;BME280;40419;47.438;19.026;2023-03-04T02:48:05;99810.34;;;2.23;60.33
54512;BME280;40419;47.438;19.026;2023-03-04T02:50:35;99811.88;;;2.26;59.99
54512;BME280;40419;47.438;19.026;2023-03-04T02:53:01;99800.22;;;2.27;59.49
54512;BME280;40419;47.438;19.026;2023-03-04T02:55:29;99795.06;;;2.16;58.95
54512;BME280;40419;47.438;19.026;2023-03-04T02:57:58;99792.38;;;2.16;58.99
54512;BME280;40419;47.438;19.026;2023-03-04T03:00:25;99793.41;;;2.15;60.47
54512;BME280;40419;47.438;19.026;2023-03-04T03:02:51;99791.59;;;2.05;61.91
54512;BME280;40419;47.438;19.026;2023-03-04T03:05:23;99800.63;;;2.04;61.80
54512;BME280;40419;47.438;19.026;2023-03-04T03:07:49;99791.81;;;1.94;61.37
54512;BME280;40419;47.438;19.026;2023-03-04T03:10:15;99790.78;;;1.77;61.22
54512;BME280;40419;47.438;19.026;2023-03-04T03:12:43;99796.94;;;1.87;61.07
54512;BME280;40419;47.438;19.026;2023-03-04T03:15:14;99786.97;;;1.80;63.63
54512;BME280;40419;47.438;19.026;2023-03-04T03:17:40;99788.47;;;1.92;60.85
54512;BME280;40419;47.438;19.026;2023-03-04T03:20:06;99790.13;;;1.93;61.63
54512;BME280;40419;47.438;19.026;2023-03-04T03:22:32;99784.50;;;1.96;62.30
54512;BME280;40419;47.438;19.026;2023-03-04T03:25:00;99783.50;;;1.97;63.20
54512;BME280;40419;47.438;19.026;2023-03-04T03:27:30;99780.78;;;1.51;64.41
54512;BME280;40419;47.438;19.026;2023-03-04T03:30:01;99780.72;;;1.61;62.65
54512;BME280;40419;47.438;19.026;2023-03-04T03:32:27;99782.41;;;1.90;64.11
54512;BME280;40419;47.438;19.026;2023-03-04T03:35:00;99765.03;;;1.86;64.58
54512;BME280;40419;47.438;19.026;2023-03-04T03:37:25;99769.97;;;1.81;64.37
54512;BME280;40419;47.438;19.026;2023-03-04T03:39:53;99767.06;;;1.74;64.30
54512;BME280;40419;47.438;19.026;2023-03-04T03:42:18;99766.91;;;1.75;64.46
54512;BME280;40419;47.438;19.026;2023-03-04T03:44:46;99761.75;;;1.64;63.33
54512;BME280;40419;47.438;19.026;2023-03-04T03:47:12;99763.19;;;1.86;63.88
54512;BME280;40419;47.438;19.026;2023-03-04T03:49:37;99761.56;;;1.75;62.72
54512;BME280;40419;47.438;19.026;2023-03-04T03:52:07;99761.56;;;1.75;63.96
54512;BME280;40419;47.438;19.026;2023-03-04T03:54:33;99766.16;;;1.83;63.00
54512;BME280;40419;47.438;19.026;2023-03-04T03:56:58;99758.94;;;1.66;64.15
54512;BME280;40419;47.438;19.026;2023-03-04T03:59:26;99767.69;;;1.58;63.98
54512;BME280;40419;47.438;19.026;2023-03-04T04:01:51;99759.66;;;1.68;64.27
54512;BME280;40419;47.438;19.026;2023-03-04T04:04:22;99762.75;;;1.63;65.28
54512;BME280;40419;47.438;19.026;2023-03-04T04:06:50;99766.63;;;1.69;65.48
54512;BME280;40419;47.438;19.026;2023-03-04T04:09:15;99759.38;;;1.61;64.73
54512;BME280;40419;47.438;19.026;2023-03-04T04:11:41;99761.34;;;1.87;65.44
54512;BME280;40419;47.438;19.026;2023-03-04T04:14:08;99765.41;;;1.91;67.27
54512;BME280;40419;47.438;19.026;2023-03-04T04:16:37;99762.31;;;2.13;67.11
54512;BME280;40419;47.438;19.026;2023-03-04T04:19:05;99748.06;;;2.23;67.24
54512;BME280;40419;47.438;19.026;2023-03-04T04:21:31;99756.22;;;2.21;67.23
54512;BME280;40419;47.438;19.026;2023-03-04T04:23:59;99753.78;;;2.10;68.23
54512;BME280;40419;47.438;19.026;2023-03-04T04:26:27;99748.97;;;2.13;68.05
54512;BME280;40419;47.438;19.026;2023-03-04T04:28:55;99759.19;;;2.18;68.42
54512;BME280;40419;47.438;19.026;2023-03-04T04:31:25;99741.94;;;2.12;67.58
54512;BME280;40419;47.438;19.026;2023-03-04T04:33:51;99752.41;;;2.06;68.65
54512;BME280;40419;47.438;19.026;2023-03-04T04:36:16;99751.31;;;1.99;68.30
54512;BME280;40419;47.438;19.026;2023-03-04T04:38:44;99758.66;;;1.97;68.69
54512;BME280;40419;47.438;19.026;2023-03-04T04:41:21;99756.19;;;2.03;68.23
54512;BME280;40419;47.438;19.026;2023-03-04T04:43:50;99749.28;;;2.10;68.49
54512;BME280;40419;47.438;19.026;2023-03-04T04:46:17;99760.72;;;2.03;68.92
54512;BME280;40419;47.438;19.026;2023-03-04T04:48:46;99750.94;;;1.93;68.85
54512;BME280;40419;47.438;19.026;2023-03-04T04:51:12;99756.28;;;1.93;70.85
54512;BME280;40419;47.438;19.026;2023-03-04T04:53:37;99753.13;;;1.80;70.51
54512;BME280;40419;47.438;19.026;2023-03-04T04:56:15;99741.19;;;1.74;71.47
54512;BME280;40419;47.438;19.026;2023-03-04T04:58:44;99744.06;;;1.63;72.47
54512;BME280;40419;47.438;19.026;2023-03-04T05:01:10;99745.53;;;1.48;73.48
54512;BME280;40419;47.438;19.026;2023-03-04T05:03:36;99749.34;;;1.73;74.36
54512;BME280;40419;47.438;19.026;2023-03-04T05:06:03;99749.69;;;1.60;74.69
54512;BME280;40419;47.438;19.026;2023-03-04T05:08:30;99748.84;;;1.59;74.87
54512;BME280;40419;47.438;19.026;2023-03-04T05:11:01;99747.59;;;1.54;76.55
54512;BME280;40419;47.438;19.026;2023-03-04T05:13:27;99755.22;;;1.49;76.82
54512;BME280;40419;47.438;19.026;2023-03-04T05:15:58;99754.09;;;1.51;77.62
54512;BME280;40419;47.438;19.026;2023-03-04T05:18:26;99754.78;;;1.53;76.95
54512;BME280;40419;47.438;19.026;2023-03-04T05:20:54;99763.63;;;1.54;76.31
54512;BME280;40419;47.438;19.026;2023-03-04T05:23:20;99752.22;;;1.62;77.08
54512;BME280;40419;47.438;19.026;2023-03-04T05:25:46;99756.94;;;1.40;77.45
54512;BME280;40419;47.438;19.026;2023-03-04T05:28:15;99757.44;;;1.53;78.57
54512;BME280;40419;47.438;19.026;2023-03-04T05:30:44;99764.66;;;1.43;78.39
54512;BME280;40419;47.438;19.026;2023-03-04T05:33:11;99770.84;;;1.44;78.26
54512;BME280;40419;47.438;19.026;2023-03-04T05:35:39;99774.88;;;1.48;78.34
54512;BME280;40419;47.438;19.026;2023-03-04T05:38:09;99776.03;;;1.45;79.00
54512;BME280;40419;47.438;19.026;2023-03-04T05:40:36;99772.47;;;1.54;79.20
54512;BME280;40419;47.438;19.026;2023-03-04T05:43:01;99779.59;;;1.64;79.10
54512;BME280;40419;47.438;19.026;2023-03-04T05:45:29;99775.00;;;1.84;77.99
54512;BME280;40419;47.438;19.026;2023-03-04T05:47:55;99777.06;;;1.90;78.06
54512;BME280;40419;47.438;19.026;2023-03-04T05:50:21;99778.03;;;1.99;76.11
54512;BME280;40419;47.438;19.026;2023-03-04T05:52:51;99786.75;;;2.19;75.96
54512;BME280;40419;47.438;19.026;2023-03-04T05:55:17;99783.16;;;2.28;75.64
54512;BME280;40419;47.438;19.026;2023-03-04T05:57:46;99775.09;;;2.38;74.74
54512;BME280;40419;47.438;19.026;2023-03-04T06:00:12;99773.56;;;2.35;75.15
54512;BME280;40419;47.438;19.026;2023-03-04T06:02:42;99777.91;;;2.36;75.77
54512;BME280;40419;47.438;19.026;2023-03-04T06:05:11;99783.03;;;2.65;74.56
54512;BME280;40419;47.438;19.026;2023-03-04T06:07:41;99782.97;;;2.75;74.75
54512;BME280;40419;47.438;19.026;2023-03-04T06:10:16;99790.13;;;2.75;75.84
54512;BME280;40419;47.438;19.026;2023-03-04T06:12:44;99796.25;;;2.31;78.34
54512;BME280;40419;47.438;19.026;2023-03-04T06:15:14;99799.50;;;2.25;79.83
54512;BME280;40419;47.438;19.026;2023-03-04T06:17:40;99801.41;;;2.15;80.03
54512;BME280;40419;47.438;19.026;2023-03-04T06:20:10;99807.63;;;2.33;80.07
54512;BME280;40419;47.438;19.026;2023-03-04T06:22:35;99811.75;;;2.45;79.22
54512;BME280;40419;47.438;19.026;2023-03-04T06:25:02;99794.88;;;2.63;78.67
54512;BME280;40419;47.438;19.026;2023-03-04T06:27:27;99807.25;;;2.64;79.56
54512;BME280;40419;47.438;19.026;2023-03-04T06:30:01;99805.78;;;2.52;79.79
54512;BME280;40419;47.438;19.026;2023-03-04T06:32:27;99806.56;;;2.80;78.39
54512;BME280;40419;47.438;19.026;2023-03-04T06:34:52;99818.06;;;2.98;76.18
54512;BME280;40419;47.438;19.026;2023-03-04T06:37:18;99814.88;;;2.95;75.70
54512;BME280;40419;47.438;19.026;2023-03-04T06:39:44;99821.16;;;2.86;75.92
54512;BME280;40419;47.438;19.026;2023-03-04T06:42:10;99810.34;;;2.95;76.80
54512;BME280;40419;47.438;19.026;2023-03-04T06:44:38;99809.72;;;3.01;76.15
54512;BME280;40419;47.438;19.026;2023-03-04T06:47:06;99814.56;;;2.98;78.42
54512;BME280;40419;47.438;19.026;2023-03-04T06:49:32;99809.19;;;3.16;76.75
54512;BME280;40419;47.438;19.026;2023-03-04T06:51:57;99809.19;;;3.42;76.85
54512;BME280;40419;47.438;19.026;2023-03-04T06:54:23;99812.09;;;3.49;76.57
54512;BME280;40419;47.438;19.026;2023-03-04T06:56:49;99801.91;;;3.61;77.21
54512;BME280;40419;47.438;19.026;2023-03-04T06:59:20;99807.34;;;3.69;76.21
54512;BME280;40419;47.438;19.026;2023-03-04T07:01:50;99813.03;;;3.74;76.10
54512;BME280;40419;47.438;19.026;2023-03-04T07:04:15;99809.78;;;3.88;72.49
54512;BME280;40419;47.438;19.026;2023-03-04T07:06:43;99807.88;;;4.23;72.07
54512;BME280;40419;47.438;19.026;2023-03-04T07:09:09;99806.25;;;4.31;71.50
54512;BME280;40419;47.438;19.026;2023-03-04T07:11:36;99796.19;;;4.33;70.88
54512;BME280;40419;47.438;19.026;2023-03-04T07:14:04;99796.56;;;4.46;70.67
54512;BME280;40419;47.438;19.026;2023-03-04T07:16:32;99805.59;;;4.37;70.87
54512;BME280;40419;47.438;19.026;2023-03-04T07:18:58;99799.41;;;4.53;70.65
54512;BME280;40419;47.438;19.026;2023-03-04T07:21:24;99809.63;;;4.49;69.44
54512;BME280;40419;47.438;19.026;2023-03-04T07:23:49;99813.66;;;4.53;70.85
54512;BME280;40419;47.438;19.026;2023-03-04T07:26:17;99799.91;;;4.65;69.71
54512;BME280;40419;47.438;19.026;2023-03-04T07:28:43;99802.59;;;4.56;68.92
54512;BME280;40419;47.438;19.026;2023-03-04T07:33:45;99801.59;;;4.66;68.55
54512;BME280;40419;47.438;19.026;2023-03-04T07:36:11;99806.00;;;4.83;68.53
54512;BME280;40419;47.438;19.026;2023-03-04T07:38:48;99799.28;;;4.79;66.87
54512;BME280;40419;47.438;19.026;2023-03-04T07:41:17;99811.69;;;4.88;67.56
54512;BME280;40419;47.438;19.026;2023-03-04T07:43:47;99798.94;;;5.07;66.51
54512;BME280;40419;47.438;19.026;2023-03-04T07:46:18;99799.56;;;5.25;64.17
54512;BME280;40419;47.438;19.026;2023-03-04T07:48:44;99803.59;;;5.29;63.79
54512;BME280;40419;47.438;19.026;2023-03-04T07:51:12;99803.94;;;5.26;63.56
54512;BME280;40419;47.438;19.026;2023-03-04T07:53:40;99808.28;;;5.44;64.83
54512;BME280;40419;47.438;19.026;2023-03-04T07:56:07;99799.00;;;5.63;62.02
54512;BME280;40419;47.438;19.026;2023-03-04T07:58:35;99801.19;;;5.59;62.17
54512;BME280;40419;47.438;19.026;2023-03-04T08:01:05;99811.50;;;5.87;61.41
54512;BME280;40419;47.438;19.026;2023-03-04T08:03:34;99804.66;;;5.76;60.46
54512;BME280;40419;47.438;19.026;2023-03-04T08:06:03;99813.25;;;5.80;58.71
54512;BME280;40419;47.438;19.026;2023-03-04T08:08:29;99801.41;;;6.06;60.03
54512;BME280;40419;47.438;19.026;2023-03-04T08:10:54;99801.69;;;6.19;59.43
54512;BME280;40419;47.438;19.026;2023-03-04T08:13:20;99806.31;;;6.33;57.87
54512;BME280;40419;47.438;19.026;2023-03-04T08:15:46;99801.56;;;6.35;56.63
54512;BME280;40419;47.438;19.026;2023-03-04T08:18:12;99800.84;;;6.50;56.39
54512;BME280;40419;47.438;19.026;2023-03-04T08:20:41;99799.94;;;6.57;55.70
54512;BME280;40419;47.438;19.026;2023-03-04T08:23:22;99794.75;;;6.56;55.80
54512;BME280;40419;47.438;19.026;2023-03-04T08:25:56;99792.22;;;6.78;55.64
54512;BME280;40419;47.438;19.026;2023-03-04T08:28:26;99798.94;;;6.82;55.86
54512;BME280;40419;47.438;19.026;2023-03-04T08:30:56;99800.13;;;6.79;56.71
54512;BME280;40419;47.438;19.026;2023-03-04T08:33:22;99789.13;;;6.89;54.72
54512;BME280;40419;47.438;19.026;2023-03-04T08:35:48;99795.81;;;6.93;53.80
54512;BME280;40419;47.438;19.026;2023-03-04T08:38:13;99788.69;;;7.00;53.84
54512;BME280;40419;47.438;19.026;2023-03-04T08:40:39;99789.59;;;7.45;56.02
54512;BME280;40419;47.438;19.026;2023-03-04T08:43:10;99790.34;;;7.39;54.31
54512;BME280;40419;47.438;19.026;2023-03-04T08:45:36;99785.97;;;7.23;54.73
54512;BME280;40419;47.438;19.026;2023-03-04T08:48:04;99792.59;;;7.51;55.91
54512;BME280;40419;47.438;19.026;2023-03-04T08:50:31;99787.19;;;7.36;53.31
54512;BME280;40419;47.438;19.026;2023-03-04T08:52:58;99790.69;;;7.21;55.31
54512;BME280;40419;47.438;19.026;2023-03-04T08:55:30;99780.94;;;7.20;55.12
54512;BME280;40419;47.438;19.026;2023-03-04T08:57:58;99785.47;;;7.20;53.80
54512;BME280;40419;47.438;19.026;2023-03-04T09:00:29;99786.53;;;7.34;55.11
54512;BME280;40419;47.438;19.026;2023-03-04T09:02:57;99777.34;;;7.28;54.64
54512;BME280;40419;47.438;19.026;2023-03-04T09:05:23;99778.66;;;7.47;54.47
54512;BME280;40419;47.438;19.026;2023-03-04T09:07:48;99772.16;;;7.41;55.25
54512;BME280;40419;47.438;19.026;2023-03-04T09:10:14;99768.06;;;7.45;56.43
54512;BME280;40419;47.438;19.026;2023-03-04T09:12:40;99771.13;;;7.42;56.28
54512;BME280;40419;47.438;19.026;2023-03-04T09:15:06;99765.84;;;7.64;56.80
54512;BME280;40419;47.438;19.026;2023-03-04T09:17:32;99772.25;;;7.63;55.21
54512;BME280;40419;47.438;19.026;2023-03-04T09:19:57;99762.66;;;7.60;55.70
54512;BME280;40419;47.438;19.026;2023-03-04T09:22:25;99773.75;;;7.66;55.86
54512;BME280;40419;47.438;19.026;2023-03-04T09:24:50;99770.94;;;7.59;55.38
54512;BME280;40419;47.438;19.026;2023-03-04T09:27:18;99772.50;;;7.53;56.40
54512;BME280;40419;47.438;19.026;2023-03-04T09:29:46;99771.69;;;7.53;55.99
54512;BME280;40419;47.438;19.026;2023-03-04T09:32:11;99767.50;;;7.65;54.73
54512;BME280;40419;47.438;19.026;2023-03-04T09:34:42;99769.56;;;7.63;55.37
54512;BME280;40419;47.438;19.026;2023-03-04T09:37:07;99759.16;;;7.60;55.06
54512;BME280;40419;47.438;19.026;2023-03-04T09:39:33;99760.13;;;7.29;55.84
54512;BME280;40419;47.438;19.026;2023-03-04T09:41:59;99770.09;;;7.43;56.20
54512;BME280;40419;47.438;19.026;2023-03-04T09:47:01;99764.53;;;7.45;56.00
54512;BME280;40419;47.438;19.026;2023-03-04T09:49:28;99766.78;;;7.56;55.78
54512;BME280;40419;47.438;19.026;2023-03-04T09:52:03;99756.72;;;7.50;55.97
54512;BME280;40419;47.438;19.026;2023-03-04T10:00:20;99742.53;;;7.41;55.97
54512;BME280;40419;47.438;19.026;2023-03-04T10:03:10;99751.81;;;7.39;55.86
54512;BME280;40419;47.438;19.026;2023-03-04T10:05:56;99753.00;;;7.36;56.83
54512;BME280;40419;47.438;19.026;2023-03-04T10:10:58;99745.50;;;7.61;56.09
54512;BME280;40419;47.438;19.026;2023-03-04T10:16:36;99746.63;;;7.52;56.48
54512;BME280;40419;47.438;19.026;2023-03-04T10:19:15;99744.19;;;7.57;56.38
54512;BME280;40419;47.438;19.026;2023-03-04T10:21:48;99735.34;;;7.63;57.37
54512;BME280;40419;47.438;19.026;2023-03-04T10:24:20;99738.97;;;7.56;57.25
54512;BME280;40419;47.438;19.026;2023-03-04T10:27:00;99732.41;;;7.58;56.81
54512;BME280;40419;47.438;19.026;2023-03-04T10:29:27;99721.81;;;7.42;56.69
54512;BME280;40419;47.438;19.026;2023-03-04T10:31:58;99714.91;;;7.54;57.04
54512;BME280;40419;47.438;19.026;2023-03-04T10:34:26;99717.50;;;7.77;56.68
54512;BME280;40419;47.438;19.026;2023-03-04T10:44:22;99688.41;;;7.73;56.90
54512;BME280;40419;47.438;19.026;2023-03-04T10:46:48;99692.22;;;7.78;56.33
54512;BME280;40419;47.438;19.026;2023-03-04T10:49:16;99684.81;;;7.80;55.12
54512;BME280;40419;47.438;19.026;2023-03-04T10:52:12;99682.34;;;7.86;53.95
54512;BME280;40419;47.438;19.026;2023-03-04T10:54:55;99679.28;;;7.89;54.40
54512;BME280;40419;47.438;19.026;2023-03-04T10:57:38;99666.75;;;7.81;54.64
54512;BME280;40419;47.438;19.026;2023-03-04T11:02:43;99665.41;;;7.92;54.77
54512;BME280;40419;47.438;19.026;2023-03-04T11:05:23;99647.31;;;7.86;53.88
54512;BME280;40419;47.438;19.026;2023-03-04T11:07:58;99649.88;;;7.94;54.21
54512;BME280;40419;47.438;19.026;2023-03-04T11:18:21;99640.53;;;8.11;51.03
54512;BME280;40419;47.438;19.026;2023-03-04T11:20:52;99641.81;;;8.15;51.90
54512;BME280;40419;47.438;19.026;2023-03-04T11:23:34;99637.06;;;8.18;51.62
54512;BME280;40419;47.438;19.026;2023-03-04T11:26:05;99637.31;;;8.23;49.93
54512;BME280;40419;47.438;19.026;2023-03-04T11:31:17;99633.78;;;8.22;50.54
54512;BME280;40419;47.438;19.026;2023-03-04T11:34:00;99627.81;;;8.27;50.28
54512;BME280;40419;47.438;19.026;2023-03-04T11:39:19;99637.50;;;8.21;50.53
54512;BME280;40419;47.438;19.026;2023-03-04T11:41:55;99613.22;;;8.21;50.45
54512;BME280;40419;47.438;19.026;2023-03-04T11:44:25;99631.72;;;8.24;49.73
54512;BME280;40419;47.438;19.026;2023-03-04T11:50:30;99619.72;;;8.27;49.89
54512;BME280;40419;47.438;19.026;2023-03-04T11:56:57;99601.88;;;8.26;49.94
54512;BME280;40419;47.438;19.026;2023-03-04T12:01:41;99600.22;;;8.25;49.92
54512;BME280;40419;47.438;19.026;2023-03-04T12:09:52;99585.59;;;8.41;50.44
54512;BME280;40419;47.438;19.026;2023-03-04T12:15:14;99582.66;;;8.36;51.38
54512;BME280;40419;47.438;19.026;2023-03-04T12:17:56;99591.38;;;8.38;51.87
54512;BME280;40419;47.438;19.026;2023-03-04T12:23:27;99578.34;;;8.41;52.10
54512;BME280;40419;47.438;19.026;2023-03-04T12:31:40;99570.78;;;8.51;51.40
54512;BME280;40419;47.438;19.026;2023-03-04T12:46:03;99566.53;;;8.71;52.02
54512;BME280;40419;47.438;19.026;2023-03-04T12:48:36;99565.44;;;8.65;51.57
54512;BME280;40419;47.438;19.026;2023-03-04T12:56:48;99546.09;;;8.90;51.53
54512;BME280;40419;47.438;19.026;2023-03-04T12:59:18;99539.84;;;8.89;52.05
54512;BME280;40419;47.438;19.026;2023-03-04T13:10:21;99530.66;;;9.18;50.44
54512;BME280;40419;47.438;19.026;2023-03-04T13:12:55;99533.16;;;9.27;50.47
54512;BME280;40419;47.438;19.026;2023-03-04T13:26:38;99519.81;;;9.12;51.41
54512;BME280;40419;47.438;19.026;2023-03-04T13:28:36;99520.88;;;9.17;51.12
54512;BME280;40419;47.438;19.026;2023-03-04T13:31:21;99511.94;;;9.17;49.48
54512;BME280;40419;47.438;19.026;2023-03-04T13:33:54;99506.34;;;9.25;50.56
54512;BME280;40419;47.438;19.026;2023-03-04T13:36:54;99504.50;;;9.32;49.86
54512;BME280;40419;47.438;19.026;2023-03-04T13:39:24;99512.56;;;9.12;49.95
54512;BME280;40419;47.438;19.026;2023-03-04T13:41:52;99499.31;;;9.24;48.68
54512;BME280;40419;47.438;19.026;2023-03-04T13:44:34;99503.69;;;9.38;48.51
54512;BME280;40419;47.438;19.026;2023-03-04T13:47:12;99504.31;;;9.27;48.38
54512;BME280;40419;47.438;19.026;2023-03-04T13:49:42;99481.22;;;9.18;47.68
54512;BME280;40419;47.438;19.026;2023-03-04T13:52:39;99483.72;;;9.19;43.92
54512;BME280;40419;47.438;19.026;2023-03-04T13:55:39;99480.41;;;9.31;43.73
54512;BME280;40419;47.438;19.026;2023-03-04T13:58:26;99470.22;;;9.26;43.47
54512;BME280;40419;47.438;19.026;2023-03-04T14:00:54;99463.13;;;9.25;43.34
54512;BME280;40419;47.438;19.026;2023-03-04T14:03:30;99467.53;;;9.39;43.06
54512;BME280;40419;47.438;19.026;2023-03-04T14:06:17;99466.47;;;9.34;43.44
54512;BME280;40419;47.438;19.026;2023-03-04T14:08:47;99469.59;;;9.37;43.72
54512;BME280;40419;47.438;19.026;2023-03-04T14:11:25;99463.97;;;9.39;43.33
54512;BME280;40419;47.438;19.026;2023-03-04T14:13:54;99463.16;;;9.32;43.10
54512;BME280;40419;47.438;19.026;2023-03-04T14:16:25;99468.31;;;9.27;43.49
54512;BME280;40419;47.438;19.026;2023-03-04T14:19:01;99459.00;;;9.29;43.80
54512;BME280;40419;47.438;19.026;2023-03-04T14:21:29;99467.47;;;9.13;43.75
54512;BME280;40419;47.438;19.026;2023-03-04T14:24:01;99475.16;;;9.16;43.43
54512;BME280;40419;47.438;19.026;2023-03-04T14:26:28;99462.72;;;9.21;43.13
54512;BME280;40419;47.438;19.026;2023-03-04T14:28:55;99456.28;;;9.22;42.36
54512;BME280;40419;47.438;19.026;2023-03-04T14:31:30;99463.09;;;9.12;43.33
54512;BME280;40419;47.438;19.026;2023-03-04T14:34:01;99465.78;;;9.12;42.20
54512;BME280;40419;47.438;19.026;2023-03-04T14:36:31;99467.25;;;9.14;41.94
54512;BME280;40419;47.438;19.026;2023-03-04T14:39:05;99476.63;;;9.18;40.87
54512;BME280;40419;47.438;19.026;2023-03-04T14:41:40;99477.03;;;9.15;41.53
54512;BME280;40419;47.438;19.026;2023-03-04T14:44:25;99460.31;;;8.92;42.13
54512;BME280;40419;47.438;19.026;2023-03-04T14:47:00;99462.66;;;9.01;41.20
54512;BME280;40419;47.438;19.026;2023-03-04T14:49:33;99474.91;;;8.97;41.30
54512;BME280;40419;47.438;19.026;2023-03-04T14:52:00;99469.63;;;8.82;42.91
54512;BME280;40419;47.438;19.026;2023-03-04T14:54:37;99477.34;;;8.92;41.74
54512;BME280;40419;47.438;19.026;2023-03-04T14:57:34;99460.31;;;8.92;42.51
54512;BME280;40419;47.438;19.026;2023-03-04T15:02:51;99462.88;;;9.00;42.66
54512;BME280;40419;47.438;19.026;2023-03-04T15:10:32;99457.09;;;8.61;44.35